Quilcene, Washington
Current Conditions -  °F | °C
As of 3:15 PM on Wednesday 22 Oct 2014 (Local Time) from KPWT Reporting Station
Overcast Overcast  
Wind Chill: 55°   Ceiling: 400
Heat Index: 55°   Visibility: 10mi
Dew Point: 54°   Wind: 3mph
Humidity: 94%   Direction: 140°SE
Pressure: 29.67"   Gusts: NA
Location:  47.82°N, 122.88°W
Report Text: KPWT 222215Z AUTO 14003KT 10SM BKN004 OVC012 13/12 A2967 RMK AO1 P0002
Loading
Personal Weather Stations






























Interactive Weather Map
Tropical Storm Tracking
New forecast layout! Learn more

10-Day Weather Forecast

Advertisements
Track Severe Weather on mobile